Forside
METAR-TAF:

METAR-TAF

Lufthavne :

Battle Creek, Michigan, USA

Breddekreds: 42-18-45N, længdekreds: 085-14-27W, højde: 290 m

Aktuelle vejr

Denne rapport blev lavet for 35 minutter siden, kl. 21:25 UTC
Vind 13 kt fra vest med vindstød på up til 19 kt
Temperatur 1°C
Fugtighed 93%
Tryk 1010 hPa
Sigt: 9.7 km
Overskyet i en højde af 500 ft
dis

METAR: KBTL 262125Z 28013G19KT 6SM BR OVC005 01/00 A2982 RMK AO2 CIG 003V009 T00110000 $

Tid: 17:00 (22:00 UTC)

Vejrudsigter

Denne rapport blev lavet for 22 minutter siden, kl. 21:38 UTC
Foreløbig gælder fra 26 på 22 UTC til 27 på 18 UTC
Vind 12 kt fra vest med vindstød på up til 20 kt
Sigt: 9.7 km
Overskyet i en højde af 500 ft
dis
Fra 26 på 2300 UTC
Vind 10 kt fra vest
Sigt: 9.7 km
Overskyet i en højde af 600 ft
dis
Fra 27 på 1100 UTC
Vind 6 kt fra vestnordvest
Sigt: 8.0 km
Overskyet i en højde af 600 ft
dis

TAF: KBTL 262138Z 2622/2718 27012G20KT 6SM BR OVC005 FM262300 27010KT 6SM BR OVC006 FM271100 30006KT 5SM BR OVC006

Vejrobservationer og prognoser fra mere end 4000 lufthavne (METAR og TAF).

De gule og røde prikker repræsenterer de meteorologiske stationer.

Flyt musen over at se navnet på stationen.

Så klik over at se vejr observationer og prognoser.

At skifte det kort: Klik på de grønne knapper med et sort kors for at zoome ind; på den grønne knap med en bindestreg for at zoome ud; eller på de grønne pile for tilstødende kort.


METAR-TAF: